Terminal Aerodrome Forecast
Issued by NWS Upton, NY

Current Version | Previous Version | Text Only | Print | Product List | Glossary On
Versions: 1 2 3 4 5 6 7 8 9 10 11 12 13 14 15 16 17 18 19 20 21 22 23 24
000
FTUS41 KOKX 281100
TAFISP
TAF
KISP 281124Z 2812/0112 VRB04KT P6SM FEW250
     FM281400 33007KT P6SM FEW250
     FM282000 29005KT P6SM SCT200
     FM282300 VRB05KT P6SM BKN200=

USA.gov is the U.S. government's official web portal to all federal, state and local government web resources and services.